Clearlake, Washington
Current Conditions -  °F | °C
As of 12:40 PM on Friday 28 Nov 2014 (Local Time) from KBVS Reporting Station
Broken Clouds Broken Clouds  
Wind Chill: 37°   Ceiling: 2500
Heat Index: 37°   Visibility: 10mi
Dew Point: 37°   Wind: 0mph
Humidity: 100%   Direction: NA
Pressure: 29.52"   Gusts: NA
Location:  48.46°N, 122.23°W
Report Text: KBVS 282040Z AUTO 00000KT 10SM FEW001 SCT018 BKN025 03/03 A2952 RMK A01 P002
Loading
Personal Weather Stations






























Interactive Weather Map New forecast layout! Learn more

10-Day Weather Forecast

Advertisements
Track Severe Weather on mobile